createdAt,value
2023-12-18T00:01:02.753Z,0.00
2023-12-18T00:03:31.332Z,4.30
2023-12-18T00:05:59.038Z,8.50
2023-12-18T00:08:26.419Z,9.27
2023-12-18T00:10:53.828Z,8.02
2023-12-18T00:13:21.155Z,7.20
2023-12-18T00:15:48.429Z,8.27
2023-12-18T00:18:16.172Z,7.35
2023-12-18T00:20:43.408Z,4.03
2023-12-18T00:23:10.695Z,3.08
2023-12-18T00:25:39.487Z,3.17
2023-12-18T00:28:07.199Z,7.47
2023-12-18T00:30:34.418Z,7.75
2023-12-18T00:33:02.489Z,8.00
2023-12-18T00:35:29.852Z,10.00
2023-12-18T00:37:57.326Z,8.60
2023-12-18T00:40:24.612Z,3.63
2023-12-18T00:42:52.181Z,5.45
2023-12-18T00:45:19.413Z,9.57
2023-12-18T00:47:46.739Z,9.38
2023-12-18T00:50:14.102Z,8.13
2023-12-18T00:52:41.375Z,7.55
2023-12-18T00:55:09.254Z,7.53
2023-12-18T00:57:36.550Z,9.23
2023-12-18T01:00:05.574Z,10.18
2023-12-18T01:02:32.939Z,8.30
2023-12-18T01:05:00.332Z,6.13
2023-12-18T01:07:27.558Z,8.00
2023-12-18T01:09:59.453Z,6.95
2023-12-18T01:12:28.046Z,7.53
2023-12-18T01:14:55.504Z,3.70
2023-12-18T01:17:30.419Z,2.47
2023-12-18T01:20:04.249Z,1.92
2023-12-18T01:22:31.496Z,5.53
2023-12-18T01:24:58.858Z,3.72
2023-12-18T01:27:26.334Z,1.75
2023-12-18T01:29:53.608Z,4.85
2023-12-18T01:32:20.942Z,6.30
2023-12-18T01:34:48.151Z,6.35
2023-12-18T01:37:15.230Z,1.52
2023-12-18T01:39:42.562Z,1.23
2023-12-18T01:42:09.852Z,2.58
2023-12-18T01:44:37.304Z,2.65
2023-12-18T01:47:05.174Z,1.92
2023-12-18T01:49:32.940Z,1.85
2023-12-18T01:52:00.705Z,2.55
2023-12-18T01:54:30.817Z,7.30
2023-12-18T01:56:59.767Z,7.53
2023-12-18T01:59:27.253Z,7.70
2023-12-18T02:01:54.787Z,3.03
2023-12-18T02:04:23.015Z,0.00
2023-12-18T02:06:50.971Z,1.02
2023-12-18T02:09:18.216Z,0.20
2023-12-18T02:11:46.240Z,6.85
2023-12-18T02:14:14.012Z,8.27
2023-12-18T02:16:42.117Z,7.72
2023-12-18T02:19:30.465Z,1.75
2023-12-18T02:21:59.126Z,3.83
2023-12-18T02:24:26.781Z,7.63
2023-12-18T02:26:55.768Z,7.88
2023-12-18T02:29:23.009Z,6.63
2023-12-18T02:31:50.420Z,7.60
2023-12-18T02:34:17.754Z,6.80
2023-12-18T02:36:45.252Z,9.00
2023-12-18T02:39:12.581Z,8.40
2023-12-18T02:41:40.380Z,6.78
2023-12-18T02:44:07.612Z,7.88
2023-12-18T02:46:34.999Z,7.97
2023-12-18T02:49:02.417Z,7.30
2023-12-18T02:51:29.797Z,8.32
2023-12-18T02:53:56.963Z,7.38
2023-12-18T02:56:24.747Z,6.30
2023-12-18T02:58:52.210Z,6.35
2023-12-18T03:01:19.649Z,7.57
2023-12-18T03:03:47.158Z,6.82
2023-12-18T03:06:14.792Z,6.07
2023-12-18T03:08:42.540Z,7.53
2023-12-18T03:11:10.973Z,6.75
2023-12-18T03:13:38.039Z,6.20
2023-12-18T03:16:05.588Z,7.20
2023-12-18T03:18:32.967Z,5.90
2023-12-18T03:21:00.271Z,5.60
2023-12-18T03:23:27.355Z,6.45
2023-12-18T03:25:54.603Z,0.00
2023-12-18T03:28:21.721Z,0.00
2023-12-18T03:30:49.142Z,1.38
2023-12-18T03:33:16.572Z,0.00
2023-12-18T03:35:43.741Z,0.00
2023-12-18T03:38:10.924Z,2.72
2023-12-18T03:40:38.169Z,1.83
2023-12-18T03:43:06.131Z,0.22
2023-12-18T03:45:33.401Z,2.90
2023-12-18T03:48:00.900Z,6.60
2023-12-18T03:50:28.230Z,5.30
2023-12-18T03:52:55.349Z,6.07
2023-12-18T03:55:22.606Z,7.40
2023-12-18T03:57:49.708Z,7.63
2023-12-18T04:00:17.600Z,6.15
2023-12-18T04:02:44.725Z,5.63
2023-12-18T04:05:13.452Z,1.25
2023-12-18T04:07:40.972Z,1.20
2023-12-18T04:10:09.872Z,1.67
2023-12-18T04:12:38.051Z,0.13
2023-12-18T04:15:07.688Z,1.77
2023-12-18T04:17:34.982Z,1.38
2023-12-18T04:20:02.303Z,0.03
2023-12-18T04:22:29.485Z,1.75
2023-12-18T04:24:57.111Z,0.10
2023-12-18T04:27:24.572Z,3.83
2023-12-18T04:29:51.880Z,2.20
2023-12-18T04:32:19.060Z,6.57
2023-12-18T04:34:46.644Z,7.13
2023-12-18T04:37:13.883Z,7.88
2023-12-18T04:39:41.337Z,6.05
2023-12-18T04:42:08.707Z,7.93
2023-12-18T04:44:35.928Z,7.45
2023-12-18T04:47:03.231Z,7.97
2023-12-18T04:49:30.498Z,8.20
2023-12-18T04:51:57.770Z,7.53
2023-12-18T04:54:25.080Z,6.60
2023-12-18T04:56:52.365Z,7.28
2023-12-18T04:59:19.500Z,3.90
2023-12-18T05:01:46.916Z,4.05
2023-12-18T05:04:14.376Z,0.30
2023-12-18T05:06:42.397Z,5.20
2023-12-18T05:09:09.925Z,3.60
2023-12-18T05:11:37.022Z,3.10
2023-12-18T05:14:04.189Z,5.40
2023-12-18T05:16:31.403Z,6.85
2023-12-18T05:18:58.857Z,5.90
2023-12-18T05:21:26.224Z,4.88
2023-12-18T05:23:55.597Z,1.45
2023-12-18T05:26:22.887Z,1.10
2023-12-18T05:28:50.145Z,3.35
2023-12-18T05:31:20.069Z,0.55
2023-12-18T05:33:47.571Z,2.25
2023-12-18T05:36:15.752Z,0.00
2023-12-18T05:38:43.951Z,1.92
2023-12-18T05:41:11.182Z,0.00
2023-12-18T05:43:38.490Z,0.28
2023-12-18T05:46:05.980Z,0.35
2023-12-18T05:48:33.424Z,0.32
2023-12-18T05:51:00.762Z,0.00
2023-12-18T05:53:28.025Z,1.88
2023-12-18T05:55:55.193Z,0.10
2023-12-18T05:58:22.416Z,0.38
2023-12-18T06:00:50.098Z,0.20
2023-12-18T06:03:17.537Z,0.13
2023-12-18T06:05:47.571Z,1.50
2023-12-18T06:08:15.092Z,0.00
2023-12-18T06:10:42.547Z,0.38
2023-12-18T06:13:10.007Z,0.98
2023-12-18T06:15:37.491Z,0.30
2023-12-18T06:18:04.996Z,0.40
2023-12-18T06:20:33.322Z,2.10
2023-12-18T06:23:01.530Z,0.03
2023-12-18T06:25:28.889Z,2.28
2023-12-18T06:27:56.444Z,0.00
2023-12-18T06:30:23.868Z,1.80
2023-12-18T06:32:51.350Z,1.73
2023-12-18T06:35:18.542Z,0.95
2023-12-18T06:37:46.451Z,0.80
2023-12-18T06:40:13.844Z,0.00
2023-12-18T06:42:41.448Z,1.17
2023-12-18T06:45:09.322Z,1.55
2023-12-18T06:47:36.629Z,1.77
2023-12-18T06:50:04.486Z,1.15
2023-12-18T06:52:31.786Z,0.57
2023-12-18T06:54:59.132Z,1.67
2023-12-18T06:57:26.452Z,4.03
2023-12-18T06:59:53.767Z,2.40
2023-12-18T07:02:20.916Z,0.25
2023-12-18T07:04:48.002Z,0.65
2023-12-18T07:07:15.274Z,0.10
2023-12-18T07:09:42.748Z,2.88
2023-12-18T07:12:10.098Z,1.33
2023-12-18T07:14:39.508Z,1.38
2023-12-18T07:17:06.734Z,3.03
2023-12-18T07:19:33.993Z,3.53
2023-12-18T07:22:01.497Z,0.35
2023-12-18T07:24:30.031Z,0.60
2023-12-18T07:26:57.321Z,6.47
2023-12-18T07:29:24.625Z,7.03
2023-12-18T07:31:52.035Z,7.57
2023-12-18T07:34:19.282Z,7.13
2023-12-18T07:36:46.640Z,7.03
2023-12-18T07:39:13.895Z,1.48
2023-12-18T07:41:41.095Z,0.82
2023-12-18T07:44:08.638Z,5.53
2023-12-18T07:46:35.971Z,1.63
2023-12-18T07:49:03.248Z,7.68
2023-12-18T07:51:30.799Z,4.07
2023-12-18T07:53:57.927Z,8.60
2023-12-18T07:56:25.052Z,8.05
2023-12-18T07:58:52.643Z,8.45
2023-12-18T08:01:21.353Z,8.40
2023-12-18T08:03:49.402Z,9.20
2023-12-18T08:06:16.972Z,10.10
2023-12-18T08:08:44.380Z,10.52
2023-12-18T08:11:11.623Z,9.32
2023-12-18T08:13:42.388Z,10.13
2023-12-18T08:16:11.021Z,11.10
2023-12-18T08:18:38.506Z,12.35
2023-12-18T08:21:06.080Z,11.18
2023-12-18T08:23:33.286Z,2.88
2023-12-18T08:26:00.805Z,7.88
2023-12-18T08:28:28.169Z,6.65
2023-12-18T08:30:55.533Z,3.92
2023-12-18T08:33:23.096Z,2.40
2023-12-18T08:35:51.462Z,5.40
2023-12-18T08:38:18.763Z,1.45
2023-12-18T08:40:46.990Z,7.13
2023-12-18T08:43:14.323Z,9.38
2023-12-18T08:45:41.795Z,7.50
2023-12-18T08:48:09.745Z,2.95
2023-12-18T08:50:37.170Z,3.63
2023-12-18T08:53:04.993Z,0.22
2023-12-18T08:55:33.273Z,1.90
2023-12-18T08:58:00.589Z,1.35
2023-12-18T09:00:27.814Z,1.42
2023-12-18T09:02:54.981Z,5.78
2023-12-18T09:05:22.407Z,4.07
2023-12-18T09:07:50.493Z,2.70
2023-12-18T09:10:19.254Z,2.28
2023-12-18T09:12:46.899Z,3.75
2023-12-18T09:15:15.865Z,4.55
2023-12-18T09:17:44.297Z,4.38
2023-12-18T09:20:12.346Z,3.63
2023-12-18T09:22:39.767Z,1.85
2023-12-18T09:25:07.649Z,1.17
2023-12-18T09:27:34.997Z,3.40
2023-12-18T09:30:02.404Z,3.80
2023-12-18T09:32:29.853Z,1.70
2023-12-18T09:34:57.342Z,3.95
2023-12-18T09:37:24.785Z,2.67
2023-12-18T09:39:52.264Z,5.53
2023-12-18T09:42:21.462Z,8.75
2023-12-18T09:44:49.472Z,8.50
2023-12-18T09:47:16.942Z,8.80
2023-12-18T09:49:45.116Z,4.63
2023-12-18T09:52:13.069Z,1.05
2023-12-18T09:54:43.814Z,0.90
2023-12-18T09:57:13.312Z,7.60
2023-12-18T09:59:41.173Z,5.85
2023-12-18T10:02:11.341Z,7.70
2023-12-18T10:04:42.895Z,7.82
2023-12-18T10:07:10.218Z,6.50
2023-12-18T10:09:37.469Z,9.10
2023-12-18T10:12:05.420Z,9.15
2023-12-18T10:14:32.699Z,10.02
2023-12-18T10:17:00.615Z,9.88
2023-12-18T10:19:28.955Z,1.35
2023-12-18T10:21:56.409Z,6.78
2023-12-18T10:24:23.722Z,8.82
2023-12-18T10:26:51.545Z,9.18
2023-12-18T10:29:18.765Z,8.25
2023-12-18T10:31:49.871Z,8.18
2023-12-18T10:34:21.980Z,9.15
2023-12-18T10:36:49.423Z,8.30
2023-12-18T10:39:20.540Z,8.27
2023-12-18T10:41:54.690Z,0.80
2023-12-18T10:44:24.570Z,8.35
2023-12-18T10:46:53.141Z,8.73
2023-12-18T10:49:22.033Z,10.65
2023-12-18T10:51:51.218Z,5.25
2023-12-18T10:54:19.262Z,11.00
2023-12-18T10:56:49.118Z,10.30
2023-12-18T10:59:18.749Z,8.27
2023-12-18T11:01:47.055Z,7.45
2023-12-18T11:04:15.108Z,5.78
2023-12-18T11:06:43.120Z,7.97
2023-12-18T11:09:10.413Z,3.40
2023-12-18T11:11:38.275Z,3.78
2023-12-18T11:14:30.208Z,5.78
2023-12-18T11:17:23.446Z,5.60
2023-12-18T11:19:56.955Z,8.43
2023-12-18T11:22:46.540Z,4.85
2023-12-18T11:25:14.610Z,8.02
2023-12-18T11:27:44.098Z,9.02
2023-12-18T11:30:28.171Z,2.65
2023-12-18T11:32:56.886Z,9.82
2023-12-18T11:35:33.698Z,5.20
2023-12-18T11:38:07.036Z,4.82
2023-12-18T11:40:39.952Z,0.75
2023-12-18T11:43:12.439Z,6.47
2023-12-18T11:45:44.844Z,8.80
2023-12-18T11:48:19.772Z,3.85
2023-12-18T11:50:51.513Z,2.22
2023-12-18T11:53:24.965Z,3.88
2023-12-18T11:55:55.960Z,6.63
2023-12-18T11:58:26.934Z,9.65
2023-12-18T12:00:57.200Z,4.88
2023-12-18T12:03:26.711Z,1.27
2023-12-18T12:05:54.412Z,9.30
2023-12-18T12:08:21.980Z,3.60
2023-12-18T12:10:51.777Z,4.47
2023-12-18T12:13:27.441Z,8.57
2023-12-18T12:16:04.882Z,8.70
2023-12-18T12:18:35.438Z,9.50
2023-12-18T12:21:02.963Z,4.97
2023-12-18T12:23:30.838Z,5.50
2023-12-18T12:26:03.448Z,1.23
2023-12-18T12:28:31.962Z,5.68
2023-12-18T12:31:00.463Z,8.43
2023-12-18T12:33:45.088Z,8.57
2023-12-18T12:36:17.271Z,10.23
2023-12-18T12:38:45.720Z,2.05
2023-12-18T12:41:13.678Z,9.98
2023-12-18T12:43:41.130Z,10.48
2023-12-18T12:46:11.805Z,9.98
2023-12-18T12:48:41.262Z,9.02
2023-12-18T12:51:08.552Z,9.65
2023-12-18T12:53:36.126Z,9.40
2023-12-18T12:56:04.379Z,10.50
2023-12-18T12:58:35.120Z,10.25
2023-12-18T13:01:03.743Z,5.28
2023-12-18T13:03:31.747Z,11.57
2023-12-18T13:06:00.478Z,10.30
2023-12-18T13:08:28.135Z,9.65
2023-12-18T13:10:55.708Z,8.00
2023-12-18T13:13:23.358Z,11.43
2023-12-18T13:15:52.845Z,10.07
2023-12-18T13:18:20.688Z,6.97
2023-12-18T13:20:48.144Z,3.25
2023-12-18T13:23:16.020Z,10.60
2023-12-18T13:25:43.932Z,10.35
2023-12-18T13:28:11.454Z,10.88
2023-12-18T13:30:39.481Z,9.95
2023-12-18T13:33:06.670Z,10.27
2023-12-18T13:35:33.863Z,10.93
2023-12-18T13:38:01.445Z,11.15
2023-12-18T13:40:29.953Z,7.60
2023-12-18T13:42:57.462Z,8.40
2023-12-18T13:45:25.041Z,9.77
2023-12-18T13:47:54.116Z,9.13
2023-12-18T13:50:22.404Z,9.98
2023-12-18T13:52:49.953Z,10.98
2023-12-18T13:55:17.378Z,11.40
2023-12-18T13:57:48.840Z,11.63
2023-12-18T14:00:20.328Z,11.65
2023-12-18T14:02:49.433Z,10.25
2023-12-18T14:05:17.002Z,10.07
2023-12-18T14:07:44.540Z,10.80
2023-12-18T14:10:12.174Z,9.65
2023-12-18T14:12:39.856Z,10.40
2023-12-18T14:15:07.732Z,10.00
2023-12-18T14:17:34.972Z,10.35
2023-12-18T14:20:06.202Z,11.80
2023-12-18T14:22:34.393Z,9.63
2023-12-18T14:25:03.401Z,9.63
2023-12-18T14:27:32.979Z,11.05
2023-12-18T14:30:00.347Z,9.55
2023-12-18T14:32:27.664Z,10.85
2023-12-18T14:34:55.254Z,10.45
2023-12-18T14:37:22.899Z,9.65
2023-12-18T14:39:50.289Z,11.02
2023-12-18T14:42:18.010Z,9.60
2023-12-18T14:44:45.657Z,10.40
2023-12-18T14:47:13.115Z,9.70
2023-12-18T14:49:40.617Z,10.23
2023-12-18T14:52:08.358Z,9.85
2023-12-18T14:54:35.767Z,10.02
2023-12-18T14:57:03.945Z,8.45
2023-12-18T14:59:31.616Z,9.60
2023-12-18T15:02:00.772Z,10.27
2023-12-18T15:04:30.426Z,8.82
2023-12-18T15:06:59.578Z,9.40
2023-12-18T15:09:29.170Z,9.43
2023-12-18T15:11:57.098Z,8.95
2023-12-18T15:14:24.814Z,8.48
2023-12-18T15:16:52.088Z,8.30
2023-12-18T15:19:19.506Z,8.63
2023-12-18T15:21:47.039Z,9.07
2023-12-18T15:24:14.409Z,9.48
2023-12-18T15:26:41.880Z,10.25
2023-12-18T15:29:09.275Z,9.13
2023-12-18T15:31:36.992Z,9.50
2023-12-18T15:34:06.841Z,7.88
2023-12-18T15:36:35.169Z,7.53
2023-12-18T15:39:03.044Z,1.13
2023-12-18T15:41:33.180Z,1.58
2023-12-18T15:44:00.585Z,1.92
2023-12-18T15:46:27.718Z,3.85
2023-12-18T15:48:55.334Z,9.27
2023-12-18T15:51:22.931Z,8.88
2023-12-18T15:53:50.241Z,9.38
2023-12-18T15:56:18.610Z,9.07
2023-12-18T15:58:46.145Z,8.18
2023-12-18T16:01:14.029Z,9.15
2023-12-18T16:03:42.153Z,10.30
2023-12-18T16:06:09.769Z,10.50
2023-12-18T16:08:40.179Z,9.43
2023-12-18T16:11:07.586Z,3.28
2023-12-18T16:13:34.928Z,6.22
2023-12-18T16:16:02.398Z,9.25
2023-12-18T16:18:30.483Z,10.27
2023-12-18T16:20:58.224Z,6.30
2023-12-18T16:23:25.613Z,10.98
2023-12-18T16:28:21.883Z,6.22
2023-12-18T16:30:56.933Z,3.65
2023-12-18T16:33:26.353Z,9.27
2023-12-18T16:35:54.127Z,9.23
2023-12-18T16:38:21.642Z,3.88
2023-12-18T16:40:53.179Z,11.02
2023-12-18T16:43:21.113Z,10.02
2023-12-18T16:45:48.301Z,10.27
2023-12-18T16:48:15.831Z,10.85
2023-12-18T16:50:43.209Z,6.18
2023-12-18T16:53:10.640Z,10.40
2023-12-18T16:55:37.964Z,8.82
2023-12-18T16:58:05.353Z,10.77
2023-12-18T17:00:34.167Z,11.20
2023-12-18T17:03:01.874Z,9.35
2023-12-18T17:05:29.443Z,10.35
2023-12-18T17:07:56.799Z,11.45
2023-12-18T17:10:24.136Z,4.32
2023-12-18T17:12:52.481Z,10.70
2023-12-18T17:15:21.008Z,6.53
2023-12-18T17:17:48.568Z,10.88
2023-12-18T17:20:15.926Z,11.15
2023-12-18T17:22:43.414Z,12.77
2023-12-18T17:25:10.871Z,11.93
2023-12-18T17:27:38.193Z,12.65
2023-12-18T17:30:06.382Z,11.88
2023-12-18T17:32:33.828Z,11.07
2023-12-18T17:35:01.807Z,10.73
2023-12-18T17:37:29.159Z,11.27
2023-12-18T17:39:56.375Z,7.10
2023-12-18T17:42:30.710Z,8.07
2023-12-18T17:45:01.869Z,1.60
2023-12-18T17:47:29.621Z,11.15
2023-12-18T17:49:56.983Z,12.50
2023-12-18T17:52:24.741Z,5.32
2023-12-18T17:54:51.997Z,1.10
2023-12-18T17:57:19.280Z,5.60
2023-12-18T17:59:48.934Z,11.82
2023-12-18T18:02:16.983Z,7.13
2023-12-18T18:04:48.418Z,3.42
2023-12-18T18:07:15.870Z,3.72
2023-12-18T18:09:43.097Z,12.73
2023-12-18T18:12:11.032Z,6.85
2023-12-18T18:14:38.387Z,3.35
2023-12-18T18:17:05.802Z,5.30
2023-12-18T18:19:33.163Z,2.35
2023-12-18T18:22:02.342Z,6.82
2023-12-18T18:24:29.793Z,1.10
2023-12-18T18:27:08.564Z,4.43
2023-12-18T18:29:38.263Z,8.98
2023-12-18T18:32:06.681Z,6.85
2023-12-18T18:34:34.258Z,5.75
2023-12-18T18:37:01.605Z,12.05
2023-12-18T18:39:28.956Z,12.40
2023-12-18T18:41:56.375Z,10.27
2023-12-18T18:44:24.364Z,8.68
2023-12-18T18:46:51.529Z,4.05
2023-12-18T18:49:18.918Z,11.70
2023-12-18T18:51:46.136Z,4.03
2023-12-18T18:54:13.581Z,11.60
2023-12-18T18:56:40.730Z,11.93
2023-12-18T18:59:08.079Z,12.27
2023-12-18T19:01:38.263Z,10.93
2023-12-18T19:04:06.462Z,12.63
2023-12-18T19:06:34.766Z,13.13
2023-12-18T19:09:02.303Z,12.55
2023-12-18T19:11:29.584Z,9.88
2023-12-18T19:13:56.936Z,12.02
2023-12-18T19:16:24.255Z,6.35
2023-12-18T19:18:51.669Z,7.00
2023-12-18T19:21:18.846Z,9.00
2023-12-18T19:23:46.217Z,10.27
2023-12-18T19:26:13.247Z,10.90
2023-12-18T19:28:40.659Z,12.00
2023-12-18T19:31:08.038Z,12.68
2023-12-18T19:33:35.436Z,7.88
2023-12-18T19:36:08.540Z,4.78
2023-12-18T19:38:36.285Z,7.53
2023-12-18T19:41:03.534Z,12.70
2023-12-18T19:43:30.937Z,10.80
2023-12-18T19:45:58.350Z,10.55
2023-12-18T19:48:25.825Z,11.57
2023-12-18T19:50:53.242Z,10.27
2023-12-18T19:53:20.668Z,2.67
2023-12-18T19:55:47.785Z,11.45
2023-12-18T19:58:15.190Z,10.48
2023-12-18T20:00:42.577Z,7.45
2023-12-18T20:03:10.440Z,8.20
2023-12-18T20:05:37.864Z,6.25
2023-12-18T20:08:05.121Z,11.82
2023-12-18T20:10:32.312Z,4.65
2023-12-18T20:13:00.016Z,3.60
2023-12-18T20:15:27.373Z,1.35
2023-12-18T20:17:54.931Z,2.05
2023-12-18T20:20:22.352Z,3.00
2023-12-18T20:22:49.933Z,2.17
2023-12-18T20:25:17.748Z,3.95
2023-12-18T20:27:45.195Z,2.60
2023-12-18T20:30:12.498Z,5.60
2023-12-18T20:32:39.979Z,3.05
2023-12-18T20:35:08.029Z,2.70
2023-12-18T20:37:36.096Z,2.05
2023-12-18T20:40:03.440Z,3.38
2023-12-18T20:42:30.849Z,1.23
2023-12-18T20:44:58.083Z,6.95
2023-12-18T20:47:25.358Z,8.80
2023-12-18T20:49:53.186Z,7.88
2023-12-18T20:52:21.117Z,3.95
2023-12-18T20:54:48.515Z,6.55
2023-12-18T20:57:18.755Z,3.00
2023-12-18T20:59:46.478Z,2.78
2023-12-18T21:02:13.754Z,6.28
2023-12-18T21:04:41.231Z,10.05
2023-12-18T21:07:09.073Z,4.30
2023-12-18T21:09:36.353Z,8.13
2023-12-18T21:12:04.227Z,5.88
2023-12-18T21:14:35.285Z,2.40
2023-12-18T21:17:04.140Z,6.20
2023-12-18T21:19:31.533Z,1.25
2023-12-18T21:21:59.927Z,4.15
2023-12-18T21:24:28.689Z,2.13
2023-12-18T21:26:55.830Z,1.40
2023-12-18T21:29:23.061Z,3.15
2023-12-18T21:31:50.535Z,0.90
2023-12-18T21:34:17.878Z,6.60
2023-12-18T21:36:45.142Z,3.05
2023-12-18T21:39:12.387Z,1.40
2023-12-18T21:41:39.504Z,5.82
2023-12-18T21:44:06.807Z,0.28
2023-12-18T21:46:34.016Z,1.17
2023-12-18T21:49:01.423Z,1.00
2023-12-18T21:51:34.977Z,2.95
2023-12-18T21:54:05.610Z,11.25
2023-12-18T21:56:32.708Z,3.67
2023-12-18T21:59:00.061Z,8.10
2023-12-18T22:01:27.319Z,2.92
2023-12-18T22:03:55.048Z,3.75
2023-12-18T22:06:22.369Z,6.55
2023-12-18T22:08:49.701Z,3.00
2023-12-18T22:11:16.901Z,5.80
2023-12-18T22:13:44.171Z,6.18
2023-12-18T22:16:11.710Z,11.30
2023-12-18T22:18:39.039Z,11.10
2023-12-18T22:21:11.611Z,12.15
2023-12-18T22:23:43.380Z,13.90
2023-12-18T22:26:14.213Z,13.75
2023-12-18T22:28:41.514Z,14.02
2023-12-18T22:31:09.409Z,12.43
2023-12-18T22:33:36.921Z,10.07
2023-12-18T22:36:04.371Z,7.07
2023-12-18T22:38:31.962Z,4.85
2023-12-18T22:40:59.327Z,11.57
2023-12-18T22:43:26.464Z,9.98
2023-12-18T22:45:54.060Z,12.85
2023-12-18T22:48:22.224Z,4.85
2023-12-18T22:50:49.626Z,15.45
2023-12-18T22:53:19.928Z,14.80
2023-12-18T22:55:48.841Z,13.63
2023-12-18T22:58:15.976Z,14.07
2023-12-18T23:00:45.053Z,7.00
2023-12-18T23:03:13.375Z,14.85
2023-12-18T23:05:40.925Z,7.45
2023-12-18T23:08:08.275Z,15.90
2023-12-18T23:10:35.478Z,13.23
2023-12-18T23:13:02.855Z,15.05
2023-12-18T23:15:31.037Z,9.90
2023-12-18T23:17:58.858Z,12.77
2023-12-18T23:20:26.267Z,5.78
2023-12-18T23:22:53.545Z,13.85
2023-12-18T23:25:20.907Z,8.68
2023-12-18T23:27:48.038Z,9.48
2023-12-18T23:30:15.518Z,13.40
2023-12-18T23:32:42.991Z,6.20
2023-12-18T23:35:10.656Z,3.80
2023-12-18T23:37:38.470Z,10.13
2023-12-18T23:40:06.184Z,13.20
2023-12-18T23:42:33.433Z,13.98
2023-12-18T23:45:01.122Z,12.35
2023-12-18T23:47:28.932Z,11.98
2023-12-18T23:49:56.220Z,12.65
2023-12-18T23:52:23.627Z,13.30
2023-12-18T23:54:50.894Z,13.30
2023-12-18T23:57:18.035Z,4.57
2023-12-18T23:59:45.352Z,11.07
